createdAt,value
2022-10-19T00:02:17.539Z,102851.97
2022-10-19T00:04:39.459Z,102854.16
2022-10-19T00:07:01.240Z,102859.13
2022-10-19T00:09:23.460Z,102854.16
2022-10-19T00:11:49.455Z,102854.72
2022-10-19T00:14:16.442Z,102851.41
2022-10-19T00:16:38.900Z,102849.22
2022-10-19T00:19:04.488Z,102843.97
2022-10-19T00:21:27.349Z,102843.69
2022-10-19T00:23:49.557Z,102836.53
2022-10-19T00:26:12.708Z,102835.72
2022-10-19T00:28:35.012Z,102829.97
2022-10-19T00:30:57.569Z,102833.53
2022-10-19T00:33:22.382Z,102831.03
2022-10-19T00:35:44.192Z,102834.91
2022-10-19T00:38:05.931Z,102834.34
2022-10-19T00:40:27.741Z,102835.44
2022-10-19T00:42:55.733Z,102843.69
2022-10-19T00:45:17.819Z,102845.88
2022-10-19T00:47:41.258Z,102850.56
2022-10-19T00:50:04.080Z,102848.91
2022-10-19T00:52:27.979Z,102850.81
2022-10-19T00:54:53.838Z,102843.69
2022-10-19T00:57:16.344Z,102840.09
2022-10-19T00:59:41.566Z,102844.22
2022-10-19T01:02:06.194Z,102842.56
2022-10-19T01:04:30.678Z,102845.31
2022-10-19T01:06:53.660Z,102841.19
2022-10-19T01:09:15.411Z,102844.22
2022-10-19T01:12:12.047Z,102839.56
2022-10-19T01:14:59.076Z,102845.56
2022-10-19T01:17:51.568Z,102837.63
2022-10-19T01:20:25.391Z,102839.81
2022-10-19T01:23:18.086Z,102836.78
2022-10-19T01:26:25.119Z,102824.97
2022-10-19T01:29:05.199Z,102825.50
2022-10-19T01:32:06.569Z,102822.22
2022-10-19T01:34:41.030Z,102819.75
2022-10-19T01:37:14.816Z,102818.91
2022-10-19T01:40:20.013Z,102821.66
2022-10-19T01:45:21.521Z,102813.97
2022-10-19T01:48:10.850Z,102815.88
2022-10-19T01:50:44.531Z,102805.16
2022-10-19T01:53:10.867Z,102812.56
2022-10-19T01:55:35.808Z,102808.19
2022-10-19T01:58:08.314Z,102809.28
2022-10-19T02:00:37.228Z,102812.31
2022-10-19T02:03:01.227Z,102812.31
2022-10-19T02:05:30.238Z,102810.63
2022-10-19T02:07:59.451Z,102809.00
2022-10-19T02:10:22.780Z,102808.44
2022-10-19T02:12:45.756Z,102808.69
2022-10-19T02:15:18.522Z,102804.53
2022-10-19T02:17:48.541Z,102809.47
2022-10-19T02:20:10.804Z,102806.19
2022-10-19T02:22:33.319Z,102799.84
2022-10-19T02:24:55.411Z,102807.53
2022-10-19T02:27:19.122Z,102803.41
2022-10-19T02:29:41.366Z,102800.13
2022-10-19T02:32:04.523Z,102794.06
2022-10-19T02:34:27.052Z,102787.19
2022-10-19T02:36:49.593Z,102782.22
2022-10-19T02:39:11.576Z,102792.38
2022-10-19T02:41:48.126Z,102786.31
2022-10-19T02:44:20.024Z,102782.97
2022-10-19T02:46:50.939Z,102781.00
2022-10-19T02:49:14.624Z,102770.00
2022-10-19T02:51:40.448Z,102774.63
2022-10-19T02:54:05.396Z,102773.50
2022-10-19T02:56:27.543Z,102774.31
2022-10-19T02:58:49.560Z,102769.09
2022-10-19T03:01:11.450Z,102764.13
2022-10-19T03:03:33.259Z,102765.78
2022-10-19T03:05:55.661Z,102766.38
2022-10-19T03:08:17.491Z,102768.00
2022-10-19T03:10:39.228Z,102770.50
2022-10-19T03:13:01.070Z,102771.03
2022-10-19T03:15:24.732Z,102774.34
2022-10-19T03:17:46.512Z,102773.81
2022-10-19T03:20:09.641Z,102773.00
2022-10-19T03:22:31.425Z,102781.78
2022-10-19T03:24:53.262Z,102775.22
2022-10-19T03:27:15.076Z,102776.03
2022-10-19T03:29:36.858Z,102773.88
2022-10-19T03:31:58.813Z,102770.84
2022-10-19T03:34:20.583Z,102763.16
2022-10-19T03:36:42.834Z,102759.34
2022-10-19T03:39:10.760Z,102758.25
2022-10-19T03:41:35.669Z,102761.00
2022-10-19T03:43:58.199Z,102761.81
2022-10-19T03:46:21.217Z,102764.84
2022-10-19T03:48:44.066Z,102760.16
2022-10-19T03:51:10.518Z,102756.59
2022-10-19T03:53:33.364Z,102757.69
2022-10-19T03:56:07.258Z,102763.16
2022-10-19T03:58:29.400Z,102763.16
2022-10-19T04:00:51.243Z,102764.84
2022-10-19T04:03:13.005Z,102759.59
2022-10-19T04:05:34.817Z,102756.84
2022-10-19T04:07:56.536Z,102759.59
2022-10-19T04:10:18.459Z,102761.53
2022-10-19T04:12:40.179Z,102763.44
2022-10-19T04:15:01.999Z,102755.22
2022-10-19T04:17:23.946Z,102760.72
2022-10-19T04:19:45.782Z,102768.09
2022-10-19T04:22:07.528Z,102767.28
2022-10-19T04:24:29.417Z,102765.63
2022-10-19T04:26:54.592Z,102762.88
2022-10-19T04:29:19.432Z,102763.16
2022-10-19T04:31:41.359Z,102767.81
2022-10-19T04:34:03.686Z,102770.81
2022-10-19T04:36:25.573Z,102768.63
2022-10-19T04:38:47.567Z,102776.03
2022-10-19T04:41:18.254Z,102774.09
2022-10-19T04:43:41.103Z,102774.63
2022-10-19T04:46:15.446Z,102771.91
2022-10-19T04:48:39.864Z,102770.50
2022-10-19T04:51:01.807Z,102773.25
2022-10-19T04:55:51.599Z,102770.78
2022-10-19T04:58:13.400Z,102769.72
2022-10-19T05:00:37.992Z,102770.78
2022-10-19T05:02:59.749Z,102762.00
2022-10-19T05:05:21.614Z,102757.88
2022-10-19T05:07:43.370Z,102765.81
2022-10-19T05:10:06.845Z,102767.72
2022-10-19T05:12:28.644Z,102767.66
2022-10-19T05:14:50.413Z,102755.59
2022-10-19T05:17:12.808Z,102759.97
2022-10-19T05:19:34.686Z,102750.09
2022-10-19T05:21:56.465Z,102753.91
2022-10-19T05:24:18.295Z,102754.22
2022-10-19T05:26:40.104Z,102755.56
2022-10-19T05:29:04.354Z,102749.22
2022-10-19T05:31:30.494Z,102758.56
2022-10-19T05:33:52.464Z,102751.44
2022-10-19T05:36:17.526Z,102748.69
2022-10-19T05:38:39.587Z,102758.00
2022-10-19T05:41:01.330Z,102755.53
2022-10-19T05:43:23.097Z,102756.34
2022-10-19T05:45:44.868Z,102754.69
2022-10-19T05:48:06.902Z,102747.31
2022-10-19T05:50:28.693Z,102753.63
2022-10-19T05:52:50.451Z,102746.47
2022-10-19T05:55:12.291Z,102746.47
2022-10-19T05:57:34.222Z,102750.88
2022-10-19T05:59:58.375Z,102743.47
2022-10-19T06:02:20.322Z,102752.50
2022-10-19T06:04:42.109Z,102745.38
2022-10-19T06:07:03.985Z,102739.91
2022-10-19T06:09:25.942Z,102742.66
2022-10-19T06:11:48.433Z,102739.91
2022-10-19T06:14:16.543Z,102738.78
2022-10-19T06:16:38.486Z,102740.72
2022-10-19T06:19:00.811Z,102734.41
2022-10-19T06:21:27.378Z,102737.97
2022-10-19T06:23:58.989Z,102742.34
2022-10-19T06:26:21.437Z,102748.69
2022-10-19T06:28:44.900Z,102758.31
2022-10-19T06:31:09.198Z,102747.59
2022-10-19T06:33:31.574Z,102750.34
2022-10-19T06:35:53.708Z,102739.38
2022-10-19T06:38:15.593Z,102743.50
2022-10-19T06:40:37.571Z,102744.88
2022-10-19T06:42:59.475Z,102738.59
2022-10-19T06:45:21.487Z,102743.88
2022-10-19T06:47:43.516Z,102740.63
2022-10-19T06:50:07.083Z,102741.44
2022-10-19T06:52:28.868Z,102745.06
2022-10-19T06:54:50.667Z,102731.34
2022-10-19T06:57:12.511Z,102725.34
2022-10-19T06:59:34.347Z,102726.72
2022-10-19T07:01:56.198Z,102720.41
2022-10-19T07:04:17.957Z,102728.97
2022-10-19T07:06:40.018Z,102736.41
2022-10-19T07:09:02.714Z,102733.13
2022-10-19T07:11:24.538Z,102740.88
2022-10-19T07:13:46.409Z,102741.16
2022-10-19T07:16:16.005Z,102743.09
2022-10-19T07:18:42.493Z,102741.44
2022-10-19T07:21:08.548Z,102745.28
2022-10-19T07:23:33.031Z,102738.69
2022-10-19T07:26:00.860Z,102744.16
2022-10-19T07:28:22.837Z,102744.13
2022-10-19T07:30:44.712Z,102753.47
2022-10-19T07:33:06.823Z,102747.09
2022-10-19T07:35:28.652Z,102749.50
2022-10-19T07:37:50.421Z,102740.06
2022-10-19T07:40:13.103Z,102731.72
2022-10-19T07:42:37.701Z,102726.72
2022-10-19T07:44:59.571Z,102725.56
2022-10-19T07:47:21.439Z,102723.84
2022-10-19T07:49:43.219Z,102727.63
2022-10-19T07:52:05.600Z,102724.81
2022-10-19T07:54:27.664Z,102720.28
2022-10-19T07:56:49.457Z,102721.59
2022-10-19T07:59:11.689Z,102722.31
2022-10-19T08:01:41.201Z,102735.47
2022-10-19T08:06:45.115Z,102743.56
2022-10-19T08:09:07.115Z,102738.19
2022-10-19T08:11:33.924Z,102738.41
2022-10-19T08:13:58.583Z,102729.47
2022-10-19T08:16:38.846Z,102733.22
2022-10-19T08:19:07.113Z,102719.34
2022-10-19T08:21:31.089Z,102723.72
2022-10-19T08:23:53.155Z,102712.84
2022-10-19T08:26:15.139Z,102714.13
2022-10-19T08:28:36.956Z,102719.53
2022-10-19T08:30:59.106Z,102713.03
2022-10-19T08:33:20.910Z,102714.31
2022-10-19T08:35:42.663Z,102705.84
2022-10-19T08:38:04.504Z,102700.47
2022-10-19T08:40:30.729Z,102695.38
2022-10-19T08:43:20.004Z,102703.81
2022-10-19T08:45:46.043Z,102704.78
2022-10-19T08:48:28.841Z,102707.56
2022-10-19T08:50:52.615Z,102704.94
2022-10-19T08:53:22.480Z,102695.41
2022-10-19T08:56:38.921Z,102682.22
2022-10-19T08:59:33.868Z,102685.72
2022-10-19T09:02:10.600Z,102683.19
2022-10-19T09:04:42.577Z,102673.97
2022-10-19T09:07:26.060Z,102669.44
2022-10-19T09:09:58.662Z,102670.19
2022-10-19T09:12:58.850Z,102672.53
2022-10-19T09:15:34.890Z,102677.16
2022-10-19T09:17:56.813Z,102672.53
2022-10-19T09:20:39.018Z,102676.53
2022-10-19T09:23:34.376Z,102663.41
2022-10-19T09:25:58.166Z,102669.56
2022-10-19T09:28:50.538Z,102676.19
2022-10-19T09:31:38.214Z,102660.28
2022-10-19T09:34:49.989Z,102663.13
2022-10-19T09:37:21.243Z,102654.69
2022-10-19T09:39:52.389Z,102660.63
2022-10-19T09:42:30.563Z,102648.31
2022-10-19T09:44:55.095Z,102645.41
2022-10-19T09:47:36.748Z,102643.03
2022-10-19T09:50:20.869Z,102645.31
2022-10-19T09:52:46.360Z,102634.09
2022-10-19T09:55:14.152Z,102640.38
2022-10-19T09:57:50.633Z,102640.03
2022-10-19T10:00:25.833Z,102639.22
2022-10-19T10:02:55.799Z,102647.22
2022-10-19T10:05:18.960Z,102651.03
2022-10-19T10:07:41.204Z,102650.41
2022-10-19T10:10:20.755Z,102647.81
2022-10-19T10:12:43.635Z,102657.28
2022-10-19T10:15:07.457Z,102644.22
2022-10-19T10:17:31.504Z,102647.16
2022-10-19T10:19:59.274Z,102647.50
2022-10-19T10:22:32.335Z,102643.53
2022-10-19T10:24:56.555Z,102636.13
2022-10-19T10:27:56.230Z,102630.25
2022-10-19T10:30:18.950Z,102621.13
2022-10-19T10:32:58.029Z,102612.78
2022-10-19T10:35:34.374Z,102623.63
2022-10-19T10:38:06.805Z,102620.41
2022-10-19T10:40:31.664Z,102616.66
2022-10-19T10:42:58.679Z,102606.25
2022-10-19T10:45:45.103Z,102613.94
2022-10-19T10:48:25.642Z,102596.00
2022-10-19T10:50:48.018Z,102590.34
2022-10-19T10:53:46.034Z,102591.16
2022-10-19T10:56:24.963Z,102592.16
2022-10-19T10:59:00.623Z,102588.44
2022-10-19T11:01:29.189Z,102594.66
2022-10-19T11:04:14.436Z,102587.69
2022-10-19T11:06:51.695Z,102587.38
2022-10-19T11:09:43.444Z,102580.69
2022-10-19T11:12:16.143Z,102578.91
2022-10-19T11:14:53.819Z,102573.34
2022-10-19T11:17:26.395Z,102566.50
2022-10-19T11:19:51.313Z,102562.91
2022-10-19T11:22:47.811Z,102554.78
2022-10-19T11:26:11.483Z,102555.28
2022-10-19T11:28:48.247Z,102556.91
2022-10-19T11:31:22.970Z,102552.66
2022-10-19T11:34:30.460Z,102535.34
2022-10-19T11:37:29.374Z,102528.13
2022-10-19T11:40:21.191Z,102529.94
2022-10-19T11:43:20.448Z,102533.19
2022-10-19T11:46:09.102Z,102525.84
2022-10-19T11:48:39.309Z,102521.94
2022-10-19T11:51:49.780Z,102525.97
2022-10-19T11:55:00.335Z,102521.41
2022-10-19T11:57:31.405Z,102512.75
2022-10-19T12:00:03.578Z,102512.41
2022-10-19T12:03:03.655Z,102505.03
2022-10-19T12:06:03.448Z,102498.97
2022-10-19T12:09:08.509Z,102498.97
2022-10-19T12:11:57.531Z,102480.38
2022-10-19T12:14:30.373Z,102471.84
2022-10-19T12:16:58.920Z,102467.22
2022-10-19T12:19:40.907Z,102470.19
2022-10-19T12:22:07.322Z,102453.63
2022-10-19T12:24:33.728Z,102452.31
2022-10-19T12:26:57.129Z,102445.41
2022-10-19T12:29:41.410Z,102444.28
2022-10-19T12:32:07.264Z,102437.06
2022-10-19T12:34:59.269Z,102444.28
2022-10-19T12:37:45.124Z,102430.03
2022-10-19T12:40:38.434Z,102425.13
2022-10-19T12:43:16.771Z,102422.50
2022-10-19T12:46:04.769Z,102417.44
2022-10-19T12:48:26.595Z,102409.91
2022-10-19T12:50:48.507Z,102417.56
2022-10-19T12:53:36.190Z,102412.81
2022-10-19T12:56:09.271Z,102407.13
2022-10-19T12:58:46.740Z,102401.56
2022-10-19T13:01:20.473Z,102388.78
2022-10-19T13:03:47.103Z,102376.84
2022-10-19T13:06:17.912Z,102372.94
2022-10-19T13:08:56.340Z,102369.78
2022-10-19T13:11:18.209Z,102366.03
2022-10-19T13:14:04.747Z,102358.84
2022-10-19T13:16:29.485Z,102370.31
2022-10-19T13:19:02.129Z,102360.47
2022-10-19T13:21:52.129Z,102351.97
2022-10-19T13:24:26.113Z,102352.09
2022-10-19T13:26:47.972Z,102337.38
2022-10-19T13:29:26.745Z,102338.50
2022-10-19T13:31:48.712Z,102333.16
2022-10-19T13:34:14.316Z,102330.38
2022-10-19T13:36:39.309Z,102332.66
2022-10-19T13:39:05.713Z,102335.00
2022-10-19T13:41:49.091Z,102333.81
2022-10-19T13:44:13.923Z,102328.25
2022-10-19T13:46:54.441Z,102324.31
2022-10-19T13:50:02.251Z,102316.66
2022-10-19T13:53:02.198Z,102316.84
2022-10-19T13:56:13.243Z,102316.56
2022-10-19T13:59:27.994Z,102317.44
2022-10-19T14:01:59.156Z,102313.38
2022-10-19T14:05:00.215Z,102313.59
2022-10-19T14:07:37.158Z,102303.31
2022-10-19T14:10:25.128Z,102304.66
2022-10-19T14:12:55.510Z,102305.63
2022-10-19T14:15:30.949Z,102301.25
2022-10-19T14:17:52.871Z,102302.72
2022-10-19T14:20:35.343Z,102300.09
2022-10-19T14:22:58.106Z,102300.78
2022-10-19T14:25:29.408Z,102295.22
2022-10-19T14:28:06.355Z,102293.09
2022-10-19T14:30:32.368Z,102302.75
2022-10-19T14:32:59.442Z,102294.25
2022-10-19T14:35:41.477Z,102294.59
2022-10-19T14:38:08.582Z,102291.34
2022-10-19T14:40:43.451Z,102288.56
2022-10-19T14:43:26.753Z,102290.53
2022-10-19T14:46:12.780Z,102288.88
2022-10-19T14:48:37.669Z,102279.72
2022-10-19T14:51:00.070Z,102276.59
2022-10-19T14:53:45.505Z,102273.16
2022-10-19T14:56:32.447Z,102258.44
2022-10-19T14:59:02.655Z,102261.72
2022-10-19T15:01:24.503Z,102256.31
2022-10-19T15:03:48.904Z,102261.19
2022-10-19T15:06:31.847Z,102257.75
2022-10-19T15:09:01.973Z,102256.31
2022-10-19T15:11:29.894Z,102254.66
2022-10-19T15:14:01.492Z,102256.78
2022-10-19T15:16:46.966Z,102257.25
2022-10-19T15:19:37.967Z,102253.84
2022-10-19T15:22:32.194Z,102248.44
2022-10-19T15:25:06.478Z,102245.03
2022-10-19T15:27:46.111Z,102239.34
2022-10-19T15:30:32.546Z,102234.31
2022-10-19T15:33:00.312Z,102231.06
2022-10-19T15:35:51.754Z,102236.66
2022-10-19T15:38:26.718Z,102234.75
2022-10-19T15:40:49.795Z,102228.53
2022-10-19T15:43:52.842Z,102228.88
2022-10-19T15:46:26.757Z,102226.25
2022-10-19T15:49:00.677Z,102224.31
2022-10-19T15:51:28.475Z,102216.84
2022-10-19T15:54:06.736Z,102211.78
2022-10-19T15:56:32.336Z,102207.88
2022-10-19T15:58:57.707Z,102195.97
2022-10-19T16:01:26.182Z,102203.16
2022-10-19T16:03:49.410Z,102190.59
2022-10-19T16:06:12.217Z,102188.28
2022-10-19T16:08:34.351Z,102186.50
2022-10-19T16:10:56.231Z,102185.03
2022-10-19T16:13:18.025Z,102179.63
2022-10-19T16:15:39.840Z,102179.66
2022-10-19T16:18:01.840Z,102176.56
2022-10-19T16:20:25.990Z,102172.13
2022-10-19T16:22:49.082Z,102168.53
2022-10-19T16:25:12.113Z,102158.59
2022-10-19T16:27:34.151Z,102157.44
2022-10-19T16:29:56.238Z,102152.38
2022-10-19T16:32:18.082Z,102146.97
2022-10-19T16:34:41.283Z,102154.28
2022-10-19T16:37:05.919Z,102150.88
2022-10-19T16:39:29.097Z,102147.09
2022-10-19T16:41:51.636Z,102144.47
2022-10-19T16:44:13.631Z,102140.25
2022-10-19T16:46:35.481Z,102143.47
2022-10-19T16:48:57.363Z,102148.19
2022-10-19T16:51:26.250Z,102147.69
2022-10-19T16:53:53.132Z,102147.50
2022-10-19T16:56:15.101Z,102142.09
2022-10-19T16:58:37.393Z,102141.91
2022-10-19T17:01:02.563Z,102137.03
2022-10-19T17:03:24.547Z,102132.13
2022-10-19T17:05:46.407Z,102137.16
2022-10-19T17:08:09.384Z,102136.16
2022-10-19T17:10:31.221Z,102126.56
2022-10-19T17:12:53.177Z,102123.59
2022-10-19T17:15:41.610Z,102114.78
2022-10-19T17:17:58.041Z,102116.59
2022-10-19T17:20:19.920Z,102111.66
2022-10-19T17:22:41.797Z,102105.97
2022-10-19T17:25:04.055Z,102114.91
2022-10-19T17:29:47.962Z,102118.13
2022-10-19T17:32:09.762Z,102126.25
2022-10-19T17:34:31.942Z,102121.03
2022-10-19T17:36:53.812Z,102113.03
2022-10-19T17:39:21.462Z,102107.84
2022-10-19T17:41:47.314Z,102114.81
2022-10-19T17:44:09.302Z,102099.97
2022-10-19T17:46:34.688Z,102110.53
2022-10-19T17:48:57.827Z,102117.53
2022-10-19T17:51:29.452Z,102106.75
2022-10-19T17:53:51.544Z,102101.38
2022-10-19T17:56:17.920Z,102106.09
2022-10-19T17:58:40.360Z,102118.09
2022-10-19T18:01:03.548Z,102107.38
2022-10-19T18:03:29.249Z,102115.47
2022-10-19T18:06:09.714Z,102109.94
2022-10-19T18:08:45.703Z,102112.19
2022-10-19T18:11:13.721Z,102113.63
2022-10-19T18:16:15.467Z,102116.72
2022-10-19T18:18:40.535Z,102125.63
2022-10-19T18:21:08.479Z,102116.03
2022-10-19T18:23:30.391Z,102121.03
2022-10-19T18:25:54.390Z,102119.63
2022-10-19T18:28:19.678Z,102122.69
2022-10-19T18:30:45.161Z,102114.19
2022-10-19T18:33:07.372Z,102120.06
2022-10-19T18:35:29.349Z,102109.00
2022-10-19T18:37:51.151Z,102107.34
2022-10-19T18:40:13.135Z,102104.91
2022-10-19T18:42:35.141Z,102099.19
2022-10-19T18:44:57.304Z,102086.81
2022-10-19T18:47:19.140Z,102086.31
2022-10-19T18:49:40.928Z,102091.38
2022-10-19T18:52:03.087Z,102081.41
2022-10-19T18:54:27.814Z,102082.06
2022-10-19T18:56:49.676Z,102087.88
2022-10-19T18:59:11.616Z,102077.47
2022-10-19T19:01:33.896Z,102079.41
2022-10-19T19:03:58.360Z,102080.88
2022-10-19T19:06:26.643Z,102070.41
2022-10-19T19:08:49.645Z,102062.13
2022-10-19T19:11:32.939Z,102058.06
2022-10-19T19:14:07.900Z,102053.47
2022-10-19T19:16:34.802Z,102050.22
2022-10-19T19:18:56.599Z,102049.16
2022-10-19T19:21:27.985Z,102042.84
2022-10-19T19:23:52.463Z,102040.72
2022-10-19T19:26:15.355Z,102041.00
2022-10-19T19:28:40.666Z,102043.25
2022-10-19T19:31:05.911Z,102043.56
2022-10-19T19:33:27.691Z,102035.09
2022-10-19T19:35:50.441Z,102025.50
2022-10-19T19:38:13.828Z,102021.09
2022-10-19T19:40:44.037Z,102005.66
2022-10-19T19:43:05.873Z,102001.06
2022-10-19T19:45:27.683Z,102000.56
2022-10-19T19:47:49.535Z,102008.34
2022-10-19T19:50:11.892Z,102010.63
2022-10-19T19:52:38.084Z,102007.66
2022-10-19T19:57:29.085Z,102004.38
2022-10-19T19:59:51.144Z,102004.72
2022-10-19T20:02:12.995Z,101991.50
2022-10-19T20:04:35.106Z,101993.28
2022-10-19T20:06:57.031Z,101983.34
2022-10-19T20:09:19.023Z,101985.13
2022-10-19T20:11:42.641Z,101970.81
2022-10-19T20:14:04.819Z,101965.94
2022-10-19T20:16:32.080Z,101966.53
2022-10-19T20:19:01.786Z,101970.72
2022-10-19T20:21:25.678Z,101963.59
2022-10-19T20:23:48.578Z,101954.28
2022-10-19T20:26:16.514Z,101954.09
2022-10-19T20:28:38.318Z,101956.34
2022-10-19T20:31:08.837Z,101951.13
2022-10-19T20:33:33.234Z,101945.44
2022-10-19T20:35:55.092Z,101930.84
2022-10-19T20:38:16.856Z,101926.25
2022-10-19T20:40:40.801Z,101915.81
2022-10-19T20:43:02.875Z,101912.06
2022-10-19T20:45:24.711Z,101910.41
2022-10-19T20:47:46.507Z,101917.06
2022-10-19T20:50:09.254Z,101913.81
2022-10-19T20:52:31.063Z,101906.97
2022-10-19T20:54:52.832Z,101916.69
2022-10-19T20:57:14.659Z,101929.31
2022-10-19T20:59:38.746Z,101925.25
2022-10-19T21:02:00.629Z,101926.69
2022-10-19T21:04:23.858Z,101915.13
2022-10-19T21:06:49.447Z,101917.91
2022-10-19T21:09:13.980Z,101915.75
2022-10-19T21:11:39.840Z,101910.56
2022-10-19T21:14:06.458Z,101911.38
2022-10-19T21:16:37.680Z,101910.06
2022-10-19T21:19:02.282Z,101906.00
2022-10-19T21:21:29.457Z,101901.06
2022-10-19T21:23:59.334Z,101901.91
2022-10-19T21:26:21.619Z,101897.50
2022-10-19T21:28:49.686Z,101901.41
2022-10-19T21:31:11.515Z,101896.19
2022-10-19T21:33:33.667Z,101891.81
2022-10-19T21:35:55.695Z,101891.28
2022-10-19T21:38:17.436Z,101890.97
2022-10-19T21:40:39.280Z,101891.81
2022-10-19T21:43:01.042Z,101896.47
2022-10-19T21:45:30.199Z,101893.53
2022-10-19T21:47:52.633Z,101894.66
2022-10-19T21:50:17.437Z,101885.88
2022-10-19T21:52:39.554Z,101887.84
2022-10-19T21:55:01.513Z,101886.47
2022-10-19T21:57:23.539Z,101881.28
2022-10-19T21:59:45.485Z,101876.88
2022-10-19T22:02:07.337Z,101879.16
2022-10-19T22:04:29.343Z,101870.91
2022-10-19T22:06:52.700Z,101881.06
2022-10-19T22:09:20.299Z,101876.72
2022-10-19T22:11:43.042Z,101867.41
2022-10-19T22:14:05.350Z,101857.00
2022-10-19T22:16:29.196Z,101852.63
2022-10-19T22:18:52.333Z,101860.38
2022-10-19T22:21:24.239Z,101844.97
2022-10-19T22:23:52.511Z,101841.72
2022-10-19T22:26:17.161Z,101832.94
2022-10-19T22:28:39.052Z,101830.50
2022-10-19T22:31:00.955Z,101824.19
2022-10-19T22:33:24.270Z,101818.16
2022-10-19T22:35:58.532Z,101808.75
2022-10-19T22:38:20.445Z,101805.81
2022-10-19T22:40:42.242Z,101808.56
2022-10-19T22:43:38.436Z,101803.06
2022-10-19T22:46:00.473Z,101810.25
2022-10-19T22:48:22.436Z,101814.97
2022-10-19T22:50:44.922Z,101799.06
2022-10-19T22:53:06.807Z,101787.22
2022-10-19T22:55:28.767Z,101782.84
2022-10-19T22:57:50.696Z,101785.06
2022-10-19T23:00:13.270Z,101783.44
2022-10-19T23:02:35.390Z,101784.56
2022-10-19T23:04:57.455Z,101779.06
2022-10-19T23:07:19.236Z,101783.44
2022-10-19T23:09:41.035Z,101782.94
2022-10-19T23:12:02.903Z,101785.19
2022-10-19T23:14:24.919Z,101774.97
2022-10-19T23:16:46.748Z,101766.22
2022-10-19T23:19:08.540Z,101764.59
2022-10-19T23:21:30.348Z,101751.16
2022-10-19T23:23:52.281Z,101759.41
2022-10-19T23:26:20.265Z,101764.06
2022-10-19T23:28:44.860Z,101766.81
2022-10-19T23:31:17.594Z,101766.81
2022-10-19T23:33:40.388Z,101761.66
2022-10-19T23:36:16.246Z,101753.06
2022-10-19T23:38:38.177Z,101754.81
2022-10-19T23:41:00.070Z,101746.03
2022-10-19T23:43:21.841Z,101727.88
2022-10-19T23:45:45.825Z,101723.81
2022-10-19T23:48:07.624Z,101718.63
2022-10-19T23:50:29.499Z,101719.53
2022-10-19T23:52:51.279Z,101719.84
2022-10-19T23:55:13.088Z,101730.84
2022-10-19T23:57:35.953Z,101730.84
2022-10-19T23:59:59.378Z,101726.47
